Time;durP1;ratioP1;P1;durP2;ratioP2;P2;SDS_P1;SDS_P2;PMS_P1;PMS_P2;Temp;Humidity;BMP_temperature;BMP_pressure;BME280_temperature;BME280_humidity;BME280_pressure;Samples;Min_cycle;Max_cycle;Signal;HPM_P1;HPM_P2
2022/06/05 00:04:50;;;;;;;3.67;2.97;;;20.60;60.10;;;;;;10422171;28;20145;-57
2022/06/05 00:10:08;;;;;;;3.70;3.28;;;20.60;60.00;;;;;;10404960;28;20045;-57
2022/06/05 00:15:10;;;;;;;3.75;2.85;;;20.60;60.10;;;;;;10415201;28;20104;-56
2022/06/05 00:20:12;;;;;;;3.42;2.78;;;20.60;60.10;;;;;;10415727;28;20525;-56
2022/06/05 00:25:13;;;;;;;3.42;2.80;;;20.60;60.10;;;;;;10415171;28;20501;-57
2022/06/05 00:30:29;;;;;;;3.47;2.92;;;20.60;60.10;;;;;;10415166;28;20025;-56
2022/06/05 00:35:33;;;;;;;3.65;2.65;;;20.60;60.10;;;;;;10413550;28;20085;-56
2022/06/05 00:40:55;;;;;;;4.63;3.13;;;20.60;60.10;;;;;;10413527;28;20342;-57
2022/06/05 00:45:57;;;;;;;3.17;2.30;;;20.60;60.20;;;;;;10414098;28;20494;-57
2022/06/05 00:50:58;;;;;;;4.10;2.97;;;20.60;60.20;;;;;;10413039;28;20369;-56
2022/06/05 00:55:59;;;;;;;3.05;2.60;;;20.60;60.10;;;;;;10400865;28;20033;-56
2022/06/05 01:01:01;;;;;;;4.68;3.30;;;20.60;60.20;;;;;;10425422;28;20022;-56
2022/06/05 01:06:02;;;;;;;4.20;2.78;;;20.60;60.20;;;;;;10412311;28;20029;-56
2022/06/05 01:11:43;;;;;;;2.92;2.45;;;20.60;60.20;;;;;;10413683;28;20107;-56
2022/06/05 01:16:57;;;;;;;3.58;3.15;;;20.60;60.20;;;;;;10413518;28;20033;-57
2022/06/05 01:22:13;;;;;;;3.22;2.75;;;20.60;60.20;;;;;;10413385;28;20040;-56
2022/06/05 01:27:20;;;;;;;4.88;2.88;;;20.60;60.20;;;;;;10413061;28;20033;-57
2022/06/05 01:32:55;;;;;;;3.92;2.85;;;20.60;60.20;;;;;;10411617;28;20056;-57
2022/06/05 01:38:13;;;;;;;3.58;2.55;;;20.60;60.20;;;;;;10411716;28;20152;-56
2022/06/05 01:43:20;;;;;;;4.28;3.05;;;20.60;60.20;;;;;;10410729;28;20089;-56
2022/06/05 01:48:34;;;;;;;3.13;2.70;;;20.60;60.20;;;;;;10411620;28;20033;-57
2022/06/05 01:53:47;;;;;;;3.50;3.20;;;20.60;60.30;;;;;;10412402;28;20151;-56
2022/06/05 01:58:56;;;;;;;3.35;2.97;;;20.60;60.20;;;;;;10416708;28;20032;-56
2022/06/05 02:04:24;;;;;;;3.63;2.97;;;20.60;60.30;;;;;;10417736;28;20075;-56
2022/06/05 02:09:37;;;;;;;3.63;2.95;;;20.60;60.30;;;;;;10410632;28;20061;-57
2022/06/05 02:14:42;;;;;;;3.80;2.78;;;20.60;60.30;;;;;;10411932;28;20389;-56
2022/06/05 02:19:44;;;;;;;4.63;3.45;;;20.60;60.30;;;;;;10411885;28;20124;-57
2022/06/05 02:24:44;;;;;;;3.15;2.60;;;20.60;60.90;;;;;;10412088;28;20033;-57
2022/06/05 02:29:45;;;;;;;3.75;2.90;;;20.50;60.20;;;;;;10426936;28;20495;-56
2022/06/05 02:35:40;;;;;;;3.08;2.55;;;20.50;60.20;;;;;;10410145;28;20041;-56
2022/06/05 02:41:28;;;;;;;4.68;3.00;;;20.50;60.20;;;;;;10411418;28;20215;-56
2022/06/05 02:46:35;;;;;;;3.40;2.60;;;20.50;60.30;;;;;;10399790;28;20511;-57
2022/06/05 02:51:41;;;;;;;4.68;3.30;;;20.50;60.20;;;;;;10409740;28;20466;-57
2022/06/05 02:56:41;;;;;;;3.22;2.75;;;20.50;60.30;;;;;;10412255;28;20034;-57
2022/06/05 03:07:02;;;;;;;3.67;2.75;;;20.50;60.30;;;;;;10418150;28;20045;-56
2022/06/05 03:12:03;;;;;;;4.35;3.00;;;20.50;60.30;;;;;;10412755;28;20087;-57
2022/06/05 03:17:04;;;;;;;3.80;2.90;;;20.50;60.30;;;;;;10414712;28;20026;-57
2022/06/05 03:22:04;;;;;;;4.20;2.97;;;20.50;60.30;;;;;;10417752;28;20381;-56
2022/06/05 03:27:06;;;;;;;3.17;2.88;;;20.50;60.40;;;;;;10417598;28;20508;-57
2022/06/05 03:32:07;;;;;;;3.58;3.00;;;20.50;60.40;;;;;;10416790;28;20414;-56
2022/06/05 03:37:07;;;;;;;3.58;2.83;;;20.50;60.40;;;;;;10417012;28;20482;-57
2022/06/05 03:42:08;;;;;;;3.22;2.63;;;20.50;60.30;;;;;;10416866;28;20037;-57
2022/06/05 03:47:11;;;;;;;4.18;3.33;;;20.50;60.40;;;;;;10415179;28;20112;-56
2022/06/05 03:52:12;;;;;;;4.68;2.97;;;20.50;60.40;;;;;;10412344;28;20037;-57
2022/06/05 03:57:12;;;;;;;3.38;2.65;;;20.50;60.40;;;;;;10415562;28;20074;-57
2022/06/05 04:02:13;;;;;;;4.07;2.80;;;20.40;60.30;;;;;;10416527;28;20445;-57
2022/06/05 04:07:14;;;;;;;2.55;2.25;;;20.40;60.40;;;;;;10415010;28;20080;-57
2022/06/05 04:12:15;;;;;;;3.40;2.80;;;20.50;60.40;;;;;;10412522;28;20117;-56
2022/06/05 04:17:16;;;;;;;3.63;3.17;;;20.50;60.40;;;;;;10414330;28;20112;-56
2022/06/05 04:22:16;;;;;;;3.83;3.03;;;20.40;60.40;;;;;;10413746;28;20026;-56
2022/06/05 04:27:17;;;;;;;4.40;2.72;;;20.40;60.40;;;;;;10414951;28;20040;-56
2022/06/05 04:32:18;;;;;;;3.72;2.70;;;20.50;60.50;;;;;;10412626;28;20533;-56
2022/06/05 04:37:18;;;;;;;3.20;2.55;;;20.40;60.50;;;;;;10414806;28;20604;-58
2022/06/05 04:42:20;;;;;;;5.80;2.90;;;20.40;60.50;;;;;;10411184;28;20079;-55
2022/06/05 04:47:20;;;;;;;5.85;2.92;;;20.40;61.00;;;;;;10420765;28;20687;-55
2022/06/05 04:52:21;;;;;;;7.03;3.28;;;20.50;61.70;;;;;;10411592;28;20033;-56
2022/06/05 04:57:22;;;;;;;13.63;3.63;;;20.60;62.30;;;;;;10411463;28;20036;-55
2022/06/05 05:02:22;;;;;;;9.20;3.72;;;20.60;62.30;;;;;;10412776;28;20481;-55
2022/06/05 05:07:23;;;;;;;7.72;3.25;;;20.60;62.70;;;;;;10412786;28;20537;-56
2022/06/05 05:12:24;;;;;;;6.30;3.22;;;20.60;63.00;;;;;;10412891;28;20115;-56
2022/06/05 05:17:25;;;;;;;5.60;3.90;;;20.60;62.10;;;;;;10409014;28;20101;-56
2022/06/05 05:22:26;;;;;;;6.40;4.07;;;20.60;61.90;;;;;;10406124;28;20079;-55
2022/06/05 05:27:26;;;;;;;13.65;4.25;;;20.60;61.70;;;;;;10412705;28;20032;-55
2022/06/05 05:32:27;;;;;;;9.38;4.82;;;20.60;61.70;;;;;;10411669;28;20094;-56
2022/06/05 05:37:28;;;;;;;14.13;4.57;;;20.60;62.20;;;;;;10412997;28;20059;-55
2022/06/05 05:42:30;;;;;;;18.73;4.82;;;20.60;62.30;;;;;;10421548;28;20453;-56
2022/06/05 05:47:32;;;;;;;10.60;4.35;;;20.60;62.30;;;;;;10412559;28;20033;-56
2022/06/05 05:52:34;;;;;;;25.00;5.18;;;20.60;62.20;;;;;;10411700;28;20056;-56
2022/06/05 05:57:34;;;;;;;15.70;5.28;;;20.60;62.40;;;;;;10411577;28;20366;-56
2022/06/05 06:02:36;;;;;;;14.95;5.22;;;20.60;62.40;;;;;;10412711;28;20079;-56
2022/06/05 06:07:37;;;;;;;21.00;4.85;;;20.60;62.80;;;;;;10412446;28;20029;-55
2022/06/05 06:12:38;;;;;;;18.48;4.38;;;20.60;62.90;;;;;;10411831;28;20026;-57
2022/06/05 06:17:38;;;;;;;18.27;5.35;;;20.60;63.50;;;;;;10412476;28;20478;-54
2022/06/05 06:22:41;;;;;;;12.05;4.65;;;20.60;63.60;;;;;;10412121;28;20104;-56
2022/06/05 06:27:41;;;;;;;13.73;5.80;;;20.60;62.80;;;;;;10411535;28;20079;-58
2022/06/05 06:32:42;;;;;;;13.15;4.65;;;20.60;62.80;;;;;;10413764;28;20068;-58
2022/06/05 06:37:43;;;;;;;11.35;4.38;;;20.60;62.80;;;;;;10417225;28;20033;-57
2022/06/05 06:42:44;;;;;;;11.15;4.90;;;20.60;62.80;;;;;;10416409;28;20507;-60
2022/06/05 06:47:44;;;;;;;12.20;4.20;;;20.50;62.60;;;;;;10403601;28;20526;-57
2022/06/05 06:52:45;;;;;;;14.25;4.47;;;20.50;62.70;;;;;;10415213;28;20493;-57
2022/06/05 06:57:47;;;;;;;16.17;4.95;;;20.50;62.80;;;;;;10416837;28;20034;-57
2022/06/05 07:02:48;;;;;;;9.98;4.90;;;20.50;62.70;;;;;;10417486;28;20478;-57
2022/06/05 07:07:48;;;;;;;9.88;4.80;;;20.50;62.70;;;;;;10407958;28;20029;-57
2022/06/05 07:12:49;;;;;;;15.30;5.30;;;20.50;62.60;;;;;;10416720;28;20521;-57
2022/06/05 07:17:50;;;;;;;8.70;4.22;;;20.50;62.60;;;;;;10416725;28;20104;-57
2022/06/05 07:22:51;;;;;;;6.82;3.88;;;20.50;62.50;;;;;;10414041;28;20124;-58
2022/06/05 07:27:52;;;;;;;6.85;4.20;;;20.50;62.50;;;;;;10417786;28;20390;-58
2022/06/05 07:32:53;;;;;;;6.90;4.43;;;20.50;63.20;;;;;;10416858;28;20057;-58
2022/06/05 07:37:54;;;;;;;11.48;4.50;;;20.50;62.50;;;;;;10417209;28;20497;-58
2022/06/05 07:42:54;;;;;;;6.82;3.85;;;20.50;62.50;;;;;;10416505;28;20029;-58
2022/06/05 07:47:55;;;;;;;8.15;4.50;;;20.50;62.30;;;;;;10412002;28;20148;-59
2022/06/05 07:58:15;;;;;;;;;;;20.50;63.00;;;;;;10419390;28;20033;-59
2022/06/05 08:03:16;;;;;;;8.43;4.13;;;20.50;62.30;;;;;;10416355;28;20250;-59
2022/06/05 08:08:17;;;;;;;7.03;4.15;;;20.50;62.40;;;;;;10415028;28;20056;-58
2022/06/05 08:13:17;;;;;;;7.30;3.20;;;20.50;62.40;;;;;;10415692;28;20116;-58
2022/06/05 08:18:18;;;;;;;7.05;3.42;;;20.50;62.40;;;;;;10431204;28;20480;-59
2022/06/05 08:23:19;;;;;;;4.65;3.22;;;20.50;62.40;;;;;;10403269;28;20507;-59
2022/06/05 08:28:20;;;;;;;7.18;3.78;;;20.50;62.40;;;;;;10414288;28;20390;-59
2022/06/05 08:33:22;;;;;;;5.82;3.40;;;20.60;62.40;;;;;;10414895;28;20034;-58
2022/06/05 08:44:02;;;;;;;7.05;3.53;;;20.50;62.60;;;;;;10415192;28;20421;-58
2022/06/05 08:49:06;;;;;;;6.30;3.45;;;20.50;62.70;;;;;;10414401;28;20033;-58
2022/06/05 08:54:27;;;;;;;5.10;3.25;;;20.60;62.80;;;;;;10412023;28;20031;-58
2022/06/05 08:59:51;;;;;;;9.30;4.70;;;20.60;62.80;;;;;;10420325;28;20124;-58
2022/06/05 09:05:13;;;;;;;6.97;4.20;;;20.60;62.90;;;;;;10403924;28;20543;-62
2022/06/05 09:10:35;;;;;;;6.45;3.83;;;20.60;62.90;;;;;;10396911;28;20371;-63
2022/06/05 09:15:57;;;;;;;6.75;3.85;;;20.60;63.00;;;;;;10413623;28;20053;-62
2022/06/05 09:21:05;;;;;;;6.75;4.13;;;20.60;63.00;;;;;;10405383;28;20030;-62
2022/06/05 09:26:33;;;;;;;6.40;3.75;;;20.60;63.00;;;;;;10413353;28;20124;-62
2022/06/05 09:31:49;;;;;;;8.43;4.05;;;20.60;63.10;;;;;;10412441;28;20056;-62
2022/06/05 09:37:01;;;;;;;5.18;3.47;;;20.60;63.10;;;;;;10411621;28;20029;-62
2022/06/05 09:42:13;;;;;;;6.43;3.42;;;20.60;63.70;;;;;;10411308;28;20022;-63
2022/06/05 09:47:54;;;;;;;7.43;3.92;;;20.60;63.10;;;;;;10412135;28;20029;-62
2022/06/05 09:52:56;;;;;;;6.45;3.72;;;20.60;63.10;;;;;;10395908;28;20104;-62
2022/06/05 09:58:24;;;;;;;7.40;3.90;;;20.60;63.10;;;;;;10417659;28;20037;-62
2022/06/05 10:03:42;;;;;;;9.27;3.38;;;20.60;63.10;;;;;;10407932;28;20045;-62
2022/06/05 10:09:04;;;;;;;6.43;4.40;;;20.60;62.90;;;;;;10417478;28;20037;-63
2022/06/05 10:14:28;;;;;;;5.60;3.70;;;20.60;63.10;;;;;;10419324;28;20029;-62
2022/06/05 10:19:56;;;;;;;5.57;3.33;;;20.60;63.10;;;;;;10419979;28;20478;-61
2022/06/05 10:25:46;;;;;;;5.30;3.63;;;20.60;63.10;;;;;;10419635;28;20099;-62
2022/06/05 10:31:12;;;;;;;6.22;4.25;;;20.60;63.10;;;;;;10418595;28;20029;-62
2022/06/05 10:36:26;;;;;;;5.18;3.60;;;20.60;63.20;;;;;;10419475;28;20120;-62
2022/06/05 10:41:44;;;;;;;6.35;3.58;;;20.60;63.20;;;;;;10418771;28;20029;-62
2022/06/05 10:46:59;;;;;;;5.88;3.92;;;20.60;63.20;;;;;;10418611;28;20076;-62
2022/06/05 10:52:16;;;;;;;5.20;3.00;;;20.60;63.20;;;;;;10416587;28;20048;-63
2022/06/05 10:57:34;;;;;;;5.78;4.13;;;20.60;63.20;;;;;;10423010;28;20029;-63
2022/06/05 11:03:00;;;;;;;5.03;3.78;;;20.60;63.20;;;;;;10401091;28;20042;-62
2022/06/05 11:08:42;;;;;;;6.75;3.50;;;20.60;63.20;;;;;;10417880;28;20446;-62
2022/06/05 11:14:17;;;;;;;6.57;3.45;;;20.60;63.20;;;;;;10417003;28;20037;-62
2022/06/05 11:19:51;;;;;;;5.53;3.45;;;20.60;63.20;;;;;;10408661;28;20029;-63
2022/06/05 11:25:08;;;;;;;5.22;3.25;;;20.60;63.20;;;;;;10416320;28;20120;-62
2022/06/05 11:30:20;;;;;;;4.32;3.65;;;20.60;63.20;;;;;;10416505;28;20056;-62
2022/06/05 11:35:39;;;;;;;5.10;3.40;;;20.60;63.20;;;;;;10415169;28;20069;-63
2022/06/05 11:41:38;;;;;;;5.30;3.20;;;20.60;63.20;;;;;;10414877;28;20057;-62
2022/06/05 11:47:04;;;;;;;6.20;3.53;;;20.60;63.20;;;;;;10364780;28;20049;-63
2022/06/05 11:52:21;;;;;;;5.57;3.67;;;20.60;63.30;;;;;;10413195;28;20029;-62
2022/06/05 11:57:36;;;;;;;5.18;3.13;;;20.60;63.30;;;;;;10419914;28;20064;-63
2022/06/05 12:03:13;;;;;;;7.68;3.88;;;20.60;63.20;;;;;;10414811;28;20053;-61
2022/06/05 12:08:21;;;;;;;5.15;3.85;;;20.60;64.00;;;;;;10407820;28;20080;-62
2022/06/05 12:13:44;;;;;;;8.23;4.25;;;20.50;64.40;;;;;;10413698;28;20486;-62
2022/06/05 12:19:07;;;;;;;7.55;4.03;;;20.60;64.50;;;;;;10414561;28;20041;-62
2022/06/05 12:24:17;;;;;;;4.35;3.50;;;20.60;64.20;;;;;;10415660;28;20429;-62
2022/06/05 12:29:37;;;;;;;6.60;3.75;;;20.60;64.00;;;;;;10409798;28;20033;-62
2022/06/05 12:35:28;;;;;;;8.68;4.25;;;20.60;64.00;;;;;;10414274;28;20061;-62
2022/06/05 12:40:39;;;;;;;4.22;3.45;;;20.60;63.90;;;;;;10405456;28;20037;-62
2022/06/05 12:45:43;;;;;;;4.07;3.00;;;20.60;63.80;;;;;;10413369;28;20037;-62
2022/06/05 12:51:01;;;;;;;5.55;4.10;;;20.60;63.70;;;;;;10412643;28;20037;-62
2022/06/05 12:56:34;;;;;;;5.80;4.53;;;20.60;63.90;;;;;;10419336;28;20486;-63
2022/06/05 13:02:16;;;;;;;4.53;3.20;;;20.60;64.00;;;;;;10412121;28;20077;-58
2022/06/05 13:07:50;;;;;;;4.63;3.53;;;20.60;63.70;;;;;;10394442;28;20547;-58
2022/06/05 13:13:28;;;;;;;4.22;3.38;;;20.60;63.70;;;;;;10410739;28;20045;-58
2022/06/05 13:18:40;;;;;;;7.10;3.90;;;20.60;63.70;;;;;;10412454;28;20049;-58
2022/06/05 13:23:48;;;;;;;7.93;3.53;;;20.60;63.70;;;;;;10413394;28;20087;-58
2022/06/05 13:29:14;;;;;;;3.95;3.22;;;20.60;63.70;;;;;;10413363;28;20025;-58
2022/06/05 13:34:43;;;;;;;3.97;3.58;;;20.60;63.90;;;;;;10411832;28;20045;-58
2022/06/05 13:40:27;;;;;;;4.45;3.83;;;20.60;63.70;;;;;;10411414;28;20112;-59
2022/06/05 13:45:41;;;;;;;6.03;4.38;;;20.60;64.10;;;;;;10392078;28;20061;-59
2022/06/05 13:51:11;;;;;;;4.78;4.15;;;20.50;63.80;;;;;;10409252;28;20029;-59
2022/06/05 13:56:17;;;;;;;4.40;3.53;;;20.50;64.20;;;;;;10413093;28;20539;-59
2022/06/05 14:01:34;;;;;;;5.00;3.92;;;20.50;64.40;;;;;;10411980;28;20048;-59
2022/06/05 14:06:43;;;;;;;5.30;4.18;;;20.50;64.00;;;;;;10411824;28;20063;-60
2022/06/05 14:11:46;;;;;;;6.93;3.85;;;20.50;63.90;;;;;;10412419;28;20060;-60
2022/06/05 14:16:50;;;;;;;4.40;3.65;;;20.50;63.80;;;;;;10412085;28;20429;-61
2022/06/05 14:22:02;;;;;;;4.30;3.40;;;20.50;63.90;;;;;;10411288;28;20029;-59
2022/06/05 14:27:05;;;;;;;4.22;3.70;;;20.50;64.10;;;;;;10411229;28;20075;-59
2022/06/05 14:32:27;;;;;;;3.92;3.40;;;20.50;64.10;;;;;;10410647;28;20060;-60
2022/06/05 14:37:37;;;;;;;4.45;3.65;;;20.50;64.20;;;;;;10410819;28;20063;-59
2022/06/05 14:42:58;;;;;;;4.88;3.67;;;20.50;64.20;;;;;;10410534;28;20373;-59
2022/06/05 14:48:18;;;;;;;3.85;2.85;;;20.50;64.20;;;;;;10409624;28;20414;-59
2022/06/05 14:53:39;;;;;;;5.38;4.82;;;20.50;64.40;;;;;;10414983;28;20017;-60
2022/06/05 14:59:09;;;;;;;5.10;3.78;;;20.50;64.30;;;;;;10424122;28;20204;-60
2022/06/05 15:04:35;;;;;;;6.55;3.53;;;20.50;64.40;;;;;;10416478;28;20521;-59
2022/06/05 15:09:43;;;;;;;4.70;3.78;;;20.50;64.60;;;;;;10418174;28;20124;-59
2022/06/05 15:15:11;;;;;;;4.40;3.20;;;20.50;64.40;;;;;;10418746;28;20032;-58
2022/06/05 15:20:42;;;;;;;7.22;4.75;;;20.50;64.90;;;;;;10416969;28;20474;-59
2022/06/05 15:25:54;;;;;;;4.85;3.63;;;20.50;64.40;;;;;;10417197;28;20026;-59
2022/06/05 15:31:20;;;;;;;4.75;4.25;;;20.50;65.00;;;;;;10416356;28;20033;-59
2022/06/05 15:36:32;;;;;;;6.07;3.65;;;20.50;64.90;;;;;;10398138;28;20065;-60
2022/06/05 15:41:59;;;;;;;5.45;3.75;;;20.50;65.00;;;;;;10405106;28;20428;-59
2022/06/05 15:47:18;;;;;;;5.97;3.70;;;20.50;64.80;;;;;;10417099;28;20029;-59
2022/06/05 15:52:36;;;;;;;6.13;3.22;;;20.50;64.80;;;;;;10403159;28;20028;-60
2022/06/05 16:03:16;;;;;;;4.97;3.70;;;20.50;64.80;;;;;;10416724;28;20045;-59
2022/06/05 16:08:27;;;;;;;4.43;3.42;;;20.50;64.90;;;;;;10415169;28;20033;-59
2022/06/05 16:13:29;;;;;;;5.70;3.83;;;20.50;65.00;;;;;;10416206;28;20381;-60
2022/06/05 16:18:45;;;;;;;4.53;3.42;;;20.50;64.90;;;;;;10414685;28;20033;-60
2022/06/05 16:24:10;;;;;;;5.35;3.92;;;20.40;65.10;;;;;;10414552;28;20068;-59
2022/06/05 16:29:16;;;;;;;4.97;3.47;;;20.40;65.00;;;;;;10415452;28;20077;-59
2022/06/05 16:40:04;;;;;;;4.82;3.92;;;20.40;65.00;;;;;;10403107;28;20042;-59
2022/06/05 16:45:27;;;;;;;4.00;3.60;;;20.40;65.10;;;;;;10414354;28;20491;-59
2022/06/05 16:50:34;;;;;;;5.35;3.50;;;20.40;65.10;;;;;;10399942;28;20417;-60
2022/06/05 16:55:56;;;;;;;4.75;3.28;;;20.40;65.10;;;;;;10419006;28;20064;-60
2022/06/05 17:01:12;;;;;;;4.85;3.28;;;20.40;65.10;;;;;;10393289;28;20053;-60
2022/06/05 17:06:33;;;;;;;4.97;3.15;;;20.40;65.00;;;;;;10414533;28;20034;-60
2022/06/05 17:11:40;;;;;;;3.97;3.50;;;20.40;65.00;;;;;;10415048;28;20037;-58
2022/06/05 17:17:20;;;;;;;4.47;2.92;;;20.40;65.40;;;;;;10395949;28;20402;-60
2022/06/05 17:22:38;;;;;;;5.23;3.70;;;20.50;65.50;;;;;;10411510;28;20043;-59
2022/06/05 17:27:48;;;;;;;5.95;3.92;;;20.50;66.90;;;;;;10409413;28;20425;-58
2022/06/05 17:33:19;;;;;;;5.53;3.63;;;20.50;67.90;;;;;;10411083;28;20088;-60
2022/06/05 17:38:35;;;;;;;8.75;3.55;;;20.50;67.00;;;;;;10412613;28;20045;-60
2022/06/05 17:44:18;;;;;;;4.75;3.45;;;20.50;66.90;;;;;;10412655;28;20089;-60
2022/06/05 17:49:45;;;;;;;5.35;3.90;;;20.40;65.90;;;;;;10406317;28;20048;-60
2022/06/05 17:54:59;;;;;;;5.82;4.13;;;20.40;65.90;;;;;;10406163;28;20041;-59
2022/06/05 18:00:21;;;;;;;6.35;3.97;;;20.40;67.20;;;;;;10410425;28;20029;-59
2022/06/05 18:05:33;;;;;;;8.35;4.25;;;20.50;70.30;;;;;;10409862;28;20139;-58
2022/06/05 18:10:38;;;;;;;13.30;4.65;;;20.40;69.80;;;;;;10412671;28;20362;-58
2022/06/05 18:15:40;;;;;;;7.22;4.65;;;20.50;70.80;;;;;;10410515;28;20038;-58
2022/06/05 18:20:54;;;;;;;5.13;3.95;;;20.50;71.10;;;;;;10406420;28;20079;-60
2022/06/05 18:26:01;;;;;;;4.25;2.97;;;20.50;69.40;;;;;;10396535;28;20432;-60
2022/06/05 18:31:24;;;;;;;6.15;3.17;;;20.50;68.90;;;;;;10418459;28;20041;-59
2022/06/05 18:41:51;;;;;;;4.80;3.58;;;20.50;67.70;;;;;;10418154;28;20440;-60
2022/06/05 18:46:54;;;;;;;4.13;3.45;;;20.50;67.20;;;;;;10417805;28;20029;-60
2022/06/05 18:52:00;;;;;;;7.07;4.47;;;20.50;67.30;;;;;;10415122;28;20045;-60
2022/06/05 18:57:31;;;;;;;9.13;4.95;;;20.50;67.50;;;;;;10416041;28;20046;-61
2022/06/05 19:02:47;;;;;;;13.00;5.07;;;20.50;67.30;;;;;;10406606;28;20070;-59
2022/06/05 19:07:48;;;;;;;11.50;4.28;;;20.50;67.80;;;;;;10411628;28;20037;-59
2022/06/05 19:13:24;;;;;;;13.57;5.43;;;20.50;68.40;;;;;;10409726;28;20026;-60
2022/06/05 19:18:42;;;;;;;9.30;3.83;;;20.50;68.30;;;;;;10410895;28;20029;-60
2022/06/05 19:24:07;;;;;;;16.73;4.93;;;20.50;68.50;;;;;;10386874;28;20052;-60
2022/06/05 19:29:18;;;;;;;9.02;4.68;;;20.50;68.50;;;;;;10412351;28;20029;-60
2022/06/05 19:34:27;;;;;;;9.13;4.47;;;20.50;68.60;;;;;;10415854;28;20517;-60
2022/06/05 19:39:50;;;;;;;10.77;5.13;;;20.50;68.80;;;;;;10422920;28;20100;-60
2022/06/05 19:44:52;;;;;;;8.30;4.15;;;20.60;68.80;;;;;;10415666;28;20421;-60
2022/06/05 19:50:03;;;;;;;11.23;5.55;;;20.50;68.80;;;;;;10409397;28;20501;-61
2022/06/05 19:55:31;;;;;;;8.85;4.25;;;20.60;69.00;;;;;;10413734;28;20037;-61
2022/06/05 20:00:34;;;;;;;7.22;3.42;;;20.50;68.80;;;;;;10400139;28;20056;-62
2022/06/05 20:05:40;;;;;;;9.40;5.15;;;20.50;68.40;;;;;;10416205;28;20029;-61
2022/06/05 20:11:05;;;;;;;7.82;4.90;;;20.50;68.30;;;;;;10413170;28;20048;-62
2022/06/05 20:16:21;;;;;;;12.25;5.35;;;20.50;68.00;;;;;;10412063;28;20407;-62
2022/06/05 20:21:33;;;;;;;11.77;5.72;;;20.50;68.30;;;;;;10412518;28;20030;-63
2022/06/05 20:26:35;;;;;;;7.25;5.13;;;20.40;68.10;;;;;;10414416;28;20029;-61
2022/06/05 20:31:59;;;;;;;8.57;5.68;;;20.50;68.30;;;;;;10414647;28;20150;-61
2022/06/05 20:37:18;;;;;;;6.63;5.38;;;20.40;68.30;;;;;;10415106;28;20453;-60
2022/06/05 20:42:26;;;;;;;11.45;5.35;;;20.40;68.30;;;;;;10415178;28;20030;-61
2022/06/05 20:47:29;;;;;;;6.30;4.90;;;20.40;68.00;;;;;;10414494;28;20114;-61
2022/06/05 20:52:42;;;;;;;8.07;6.03;;;20.40;67.80;;;;;;10388256;28;20041;-61
2022/06/05 20:57:55;;;;;;;7.40;6.07;;;20.40;67.80;;;;;;10418986;28;20017;-61
2022/06/05 21:08:28;;;;;;;9.93;6.40;;;20.40;67.90;;;;;;10413359;28;20037;-60
2022/06/05 21:18:49;;;;;;;6.28;5.20;;;20.40;68.10;;;;;;10413811;28;20045;-59
2022/06/05 21:23:50;;;;;;;9.95;5.35;;;20.40;68.00;;;;;;10413346;28;20033;-61
2022/06/05 21:28:51;;;;;;;6.43;5.20;;;20.30;67.90;;;;;;10412453;28;20104;-61
2022/06/05 21:33:54;;;;;;;7.32;5.13;;;20.40;68.00;;;;;;10411122;28;20128;-60
2022/06/05 21:39:13;;;;;;;7.28;5.60;;;20.40;68.00;;;;;;10413106;28;20473;-60
2022/06/05 21:44:24;;;;;;;7.00;4.88;;;20.30;68.00;;;;;;10411510;28;20441;-60
2022/06/05 21:49:25;;;;;;;5.85;5.28;;;20.30;67.80;;;;;;10412923;28;20033;-60
2022/06/05 21:54:41;;;;;;;7.65;5.15;;;20.30;67.80;;;;;;10411397;28;20029;-60
2022/06/05 21:59:43;;;;;;;8.20;5.70;;;20.30;67.90;;;;;;10418411;28;20125;-61
2022/06/05 22:04:44;;;;;;;7.72;5.50;;;20.40;67.90;;;;;;10420007;28;20021;-61
2022/06/05 22:09:46;;;;;;;7.68;5.80;;;20.30;67.70;;;;;;10420895;28;20030;-59
2022/06/05 22:14:47;;;;;;;6.55;5.85;;;20.40;67.80;;;;;;10420625;28;20030;-61
2022/06/05 22:19:48;;;;;;;8.00;6.00;;;20.40;67.70;;;;;;10419311;28;20125;-59
2022/06/05 22:24:48;;;;;;;6.47;5.35;;;20.30;67.80;;;;;;10420003;28;20108;-60
2022/06/05 22:29:50;;;;;;;6.90;6.13;;;20.30;67.70;;;;;;10420081;28;20044;-61
2022/06/05 22:34:50;;;;;;;8.18;6.00;;;20.30;67.70;;;;;;10419199;28;20078;-60
2022/06/05 22:39:51;;;;;;;8.63;7.18;;;20.30;67.70;;;;;;10419886;28;20109;-61
2022/06/05 22:44:52;;;;;;;8.60;7.00;;;20.30;67.60;;;;;;10401923;28;20040;-59
2022/06/05 22:49:52;;;;;;;9.80;7.05;;;20.30;67.60;;;;;;10421377;28;20029;-60
2022/06/05 22:54:53;;;;;;;9.13;7.60;;;20.30;67.70;;;;;;10418938;28;20181;-60
2022/06/05 22:59:54;;;;;;;6.35;5.75;;;20.30;67.60;;;;;;10423275;28;20109;-60
2022/06/05 23:04:54;;;;;;;7.88;7.07;;;20.30;67.60;;;;;;10418733;28;20037;-61
2022/06/05 23:09:55;;;;;;;8.75;7.85;;;20.30;67.60;;;;;;10418717;28;20033;-62
2022/06/05 23:14:56;;;;;;;10.93;7.07;;;20.30;67.50;;;;;;10417092;28;20041;-60
2022/06/05 23:19:57;;;;;;;9.60;7.75;;;20.30;67.50;;;;;;10418516;28;20029;-60
2022/06/05 23:24:58;;;;;;;8.85;7.70;;;20.30;67.50;;;;;;10416746;28;20029;-60
2022/06/05 23:30:00;;;;;;;11.27;7.63;;;20.20;67.50;;;;;;10416308;28;20037;-60
2022/06/05 23:35:00;;;;;;;8.30;7.35;;;20.20;67.90;;;;;;10417070;28;20498;-60
2022/06/05 23:40:06;;;;;;;8.73;7.75;;;20.20;67.40;;;;;;10417540;28;20033;-60
2022/06/05 23:45:08;;;;;;;10.07;7.95;;;20.20;67.40;;;;;;10417295;28;20029;-61
2022/06/05 23:50:10;;;;;;;11.27;8.65;;;20.30;67.30;;;;;;10403983;28;20037;-61
2022/06/05 23:55:11;;;;;;;10.40;8.27;;;20.20;67.30;;;;;;10416298;28;20501;-60
